METAR Data
IDs: Format: Raw Decoded Include TAF

Data at: 0745 UTC 01 Dec 2022

METAR for:KJCA (Jefferson/Jackson Cn, GA, US)
Text:KJCA 010735Z AUTO 31007KT 10SM CLR 02/M07 A3031 RMK AO2 T00231073
Temperature: 2.3°C ( 36°F)
Dewpoint: -7.3°C ( 19°F) [RH = 49%]
Pressure (altimeter):30.31 inches Hg (1026.5 mb)
Winds:from the NW (310 degrees) at 8 MPH (7 knots; 3.6 m/s)
Visibility:10 or more sm (16+ km)
Ceiling:at least 12,000 feet AGL
Clouds:sky clear below 12,000 feet AGL
QC Flag:automated observation with no human augmentation